sensor_id;sensor_type;location;lat;lon;timestamp;pressure;altitude;pressure_sealevel;temperature;humidity
17649;BME280;8943;51.110;-4.158;2023-01-27T00:01:14;102925.63;;;10.21;47.53
17649;BME280;8943;51.110;-4.158;2023-01-27T00:03:44;102933.78;;;10.17;47.38
17649;BME280;8943;51.110;-4.158;2023-01-27T00:06:13;102930.41;;;10.12;47.50
17649;BME280;8943;51.110;-4.158;2023-01-27T00:08:42;102927.06;;;10.06;47.82
17649;BME280;8943;51.110;-4.158;2023-01-27T00:11:10;102917.53;;;9.99;47.60
17649;BME280;8943;51.110;-4.158;2023-01-27T00:13:55;102920.41;;;9.93;48.09
17649;BME280;8943;51.110;-4.158;2023-01-27T00:16:23;102913.47;;;9.89;47.90
17649;BME280;8943;51.110;-4.158;2023-01-27T00:18:52;102914.44;;;9.87;47.40
17649;BME280;8943;51.110;-4.158;2023-01-27T00:21:21;102911.97;;;9.80;47.83
17649;BME280;8943;51.110;-4.158;2023-01-27T00:24:04;102919.22;;;9.77;47.37
17649;BME280;8943;51.110;-4.158;2023-01-27T00:26:49;102914.22;;;9.68;47.70
17649;BME280;8943;51.110;-4.158;2023-01-27T00:29:18;102907.47;;;9.58;47.62
17649;BME280;8943;51.110;-4.158;2023-01-27T00:31:46;102908.66;;;9.49;47.54
17649;BME280;8943;51.110;-4.158;2023-01-27T00:34:32;102913.31;;;9.42;47.81
17649;BME280;8943;51.110;-4.158;2023-01-27T00:37:04;102913.47;;;9.38;47.85
17649;BME280;8943;51.110;-4.158;2023-01-27T00:39:32;102915.34;;;9.34;47.80
17649;BME280;8943;51.110;-4.158;2023-01-27T00:42:00;102905.75;;;9.30;48.28
17649;BME280;8943;51.110;-4.158;2023-01-27T00:44:28;102898.84;;;9.24;47.87
17649;BME280;8943;51.110;-4.158;2023-01-27T00:46:57;102899.78;;;9.22;47.96
17649;BME280;8943;51.110;-4.158;2023-01-27T00:49:25;102887.41;;;9.21;48.02
17649;BME280;8943;51.110;-4.158;2023-01-27T00:51:53;102884.72;;;9.22;48.08
17649;BME280;8943;51.110;-4.158;2023-01-27T00:54:23;102895.19;;;9.27;48.10
17649;BME280;8943;51.110;-4.158;2023-01-27T00:56:51;102896.03;;;9.29;48.30
17649;BME280;8943;51.110;-4.158;2023-01-27T00:59:19;102889.72;;;9.32;48.24
17649;BME280;8943;51.110;-4.158;2023-01-27T01:01:48;102879.78;;;9.37;47.96
17649;BME280;8943;51.110;-4.158;2023-01-27T01:04:17;102875.16;;;9.42;48.24
17649;BME280;8943;51.110;-4.158;2023-01-27T01:06:45;102868.03;;;9.44;48.18
17649;BME280;8943;51.110;-4.158;2023-01-27T01:09:14;102867.09;;;9.45;48.18
17649;BME280;8943;51.110;-4.158;2023-01-27T01:11:44;102863.66;;;9.41;48.29
17649;BME280;8943;51.110;-4.158;2023-01-27T01:14:14;102869.84;;;9.42;48.18
17649;BME280;8943;51.110;-4.158;2023-01-27T01:16:43;102858.50;;;9.37;48.28
17649;BME280;8943;51.110;-4.158;2023-01-27T01:19:11;102864.00;;;9.32;48.31
17649;BME280;8943;51.110;-4.158;2023-01-27T01:21:43;102846.28;;;9.31;48.35
17649;BME280;8943;51.110;-4.158;2023-01-27T01:24:13;102859.63;;;9.29;48.17
17649;BME280;8943;51.110;-4.158;2023-01-27T01:29:27;102860.81;;;9.21;48.13
17649;BME280;8943;51.110;-4.158;2023-01-27T01:31:59;102850.38;;;9.15;48.10
17649;BME280;8943;51.110;-4.158;2023-01-27T01:34:27;102844.28;;;9.11;48.19
17649;BME280;8943;51.110;-4.158;2023-01-27T01:36:56;102841.78;;;9.07;48.18
17649;BME280;8943;51.110;-4.158;2023-01-27T01:39:26;102840.25;;;8.99;48.14
17649;BME280;8943;51.110;-4.158;2023-01-27T01:41:55;102832.50;;;8.93;48.17
17649;BME280;8943;51.110;-4.158;2023-01-27T01:44:24;102835.44;;;8.84;48.51
17649;BME280;8943;51.110;-4.158;2023-01-27T01:46:57;102833.88;;;8.77;48.60
17649;BME280;8943;51.110;-4.158;2023-01-27T01:49:29;102834.09;;;8.71;48.53
17649;BME280;8943;51.110;-4.158;2023-01-27T01:52:02;102829.91;;;8.64;48.52
17649;BME280;8943;51.110;-4.158;2023-01-27T01:54:35;102829.22;;;8.57;48.50
17649;BME280;8943;51.110;-4.158;2023-01-27T01:57:07;102829.34;;;8.52;48.79
17649;BME280;8943;51.110;-4.158;2023-01-27T01:59:40;102825.97;;;8.47;48.75
17649;BME280;8943;51.110;-4.158;2023-01-27T02:02:14;102826.97;;;8.43;48.72
17649;BME280;8943;51.110;-4.158;2023-01-27T02:04:50;102822.66;;;8.39;48.74
17649;BME280;8943;51.110;-4.158;2023-01-27T02:07:24;102815.69;;;8.35;48.83
17649;BME280;8943;51.110;-4.158;2023-01-27T02:09:55;102824.72;;;8.30;48.56
17649;BME280;8943;51.110;-4.158;2023-01-27T02:12:26;102826.59;;;8.26;48.93
17649;BME280;8943;51.110;-4.158;2023-01-27T02:14:54;102814.28;;;8.23;48.90
17649;BME280;8943;51.110;-4.158;2023-01-27T02:17:34;102818.72;;;8.23;48.83
17649;BME280;8943;51.110;-4.158;2023-01-27T02:20:06;102816.06;;;8.23;48.99
17649;BME280;8943;51.110;-4.158;2023-01-27T02:22:40;102812.47;;;8.24;49.04
17649;BME280;8943;51.110;-4.158;2023-01-27T02:25:18;102813.34;;;8.24;49.08
17649;BME280;8943;51.110;-4.158;2023-01-27T02:27:52;102814.19;;;8.26;49.37
17649;BME280;8943;51.110;-4.158;2023-01-27T02:30:20;102816.84;;;8.26;49.10
17649;BME280;8943;51.110;-4.158;2023-01-27T02:32:49;102801.78;;;8.27;49.09
17649;BME280;8943;51.110;-4.158;2023-01-27T02:35:28;102807.00;;;8.30;49.36
17649;BME280;8943;51.110;-4.158;2023-01-27T02:37:58;102799.78;;;8.34;49.32
17649;BME280;8943;51.110;-4.158;2023-01-27T02:40:28;102809.50;;;8.36;49.52
17649;BME280;8943;51.110;-4.158;2023-01-27T02:42:59;102799.75;;;8.37;49.24
17649;BME280;8943;51.110;-4.158;2023-01-27T02:45:28;102802.19;;;8.44;49.50
17649;BME280;8943;51.110;-4.158;2023-01-27T02:47:57;102792.41;;;8.45;49.24
17649;BME280;8943;51.110;-4.158;2023-01-27T02:50:25;102797.47;;;8.52;49.36
17649;BME280;8943;51.110;-4.158;2023-01-27T02:52:53;102806.94;;;8.61;49.70
17649;BME280;8943;51.110;-4.158;2023-01-27T02:55:22;102795.25;;;8.67;49.82
17649;BME280;8943;51.110;-4.158;2023-01-27T02:57:50;102789.72;;;8.73;49.85
17649;BME280;8943;51.110;-4.158;2023-01-27T03:00:20;102799.19;;;8.82;49.80
17649;BME280;8943;51.110;-4.158;2023-01-27T03:02:48;102792.75;;;8.89;49.61
17649;BME280;8943;51.110;-4.158;2023-01-27T03:05:17;102789.91;;;8.95;49.71
17649;BME280;8943;51.110;-4.158;2023-01-27T03:07:45;102780.03;;;8.98;49.79
17649;BME280;8943;51.110;-4.158;2023-01-27T03:10:13;102778.13;;;9.02;49.44
17649;BME280;8943;51.110;-4.158;2023-01-27T03:12:43;102770.91;;;9.06;49.64
17649;BME280;8943;51.110;-4.158;2023-01-27T03:15:11;102777.88;;;9.10;49.61
17649;BME280;8943;51.110;-4.158;2023-01-27T03:18:04;102768.97;;;9.11;49.43
17649;BME280;8943;51.110;-4.158;2023-01-27T03:20:45;102776.72;;;9.17;49.81
17649;BME280;8943;51.110;-4.158;2023-01-27T03:23:15;102772.22;;;9.19;49.46
17649;BME280;8943;51.110;-4.158;2023-01-27T03:25:47;102780.06;;;9.23;49.47
17649;BME280;8943;51.110;-4.158;2023-01-27T03:28:15;102779.91;;;9.28;49.23
17649;BME280;8943;51.110;-4.158;2023-01-27T03:30:43;102775.38;;;9.30;49.31
17649;BME280;8943;51.110;-4.158;2023-01-27T03:33:13;102775.28;;;9.33;49.38
17649;BME280;8943;51.110;-4.158;2023-01-27T03:35:42;102777.00;;;9.34;49.10
17649;BME280;8943;51.110;-4.158;2023-01-27T03:38:15;102775.06;;;9.39;49.17
17649;BME280;8943;51.110;-4.158;2023-01-27T03:41:02;102778.50;;;9.41;49.33
17649;BME280;8943;51.110;-4.158;2023-01-27T03:43:47;102765.91;;;9.46;49.24
17649;BME280;8943;51.110;-4.158;2023-01-27T03:46:32;102773.72;;;9.51;49.09
17649;BME280;8943;51.110;-4.158;2023-01-27T03:49:02;102774.44;;;9.56;49.03
17649;BME280;8943;51.110;-4.158;2023-01-27T03:51:31;102769.81;;;9.61;49.12
17649;BME280;8943;51.110;-4.158;2023-01-27T03:53:59;102768.84;;;9.64;49.21
17649;BME280;8943;51.110;-4.158;2023-01-27T03:56:27;102760.75;;;9.67;48.97
17649;BME280;8943;51.110;-4.158;2023-01-27T03:58:56;102757.09;;;9.69;49.25
17649;BME280;8943;51.110;-4.158;2023-01-27T04:01:24;102765.91;;;9.71;48.86
17649;BME280;8943;51.110;-4.158;2023-01-27T04:03:53;102766.72;;;9.73;49.01
17649;BME280;8943;51.110;-4.158;2023-01-27T04:06:41;102764.91;;;9.74;48.80
17649;BME280;8943;51.110;-4.158;2023-01-27T04:09:26;102759.59;;;9.74;48.95
17649;BME280;8943;51.110;-4.158;2023-01-27T04:11:56;102755.88;;;9.78;48.86
17649;BME280;8943;51.110;-4.158;2023-01-27T04:14:28;102757.56;;;9.80;48.66
17649;BME280;8943;51.110;-4.158;2023-01-27T04:16:59;102762.09;;;9.78;48.82
17649;BME280;8943;51.110;-4.158;2023-01-27T04:19:28;102766.66;;;9.75;48.73
17649;BME280;8943;51.110;-4.158;2023-01-27T04:21:59;102753.47;;;9.72;48.87
17649;BME280;8943;51.110;-4.158;2023-01-27T04:24:28;102757.03;;;9.71;48.82
17649;BME280;8943;51.110;-4.158;2023-01-27T04:27:02;102759.69;;;9.71;48.80
17649;BME280;8943;51.110;-4.158;2023-01-27T04:29:33;102752.53;;;9.73;48.72
17649;BME280;8943;51.110;-4.158;2023-01-27T04:32:02;102752.41;;;9.76;48.77
17649;BME280;8943;51.110;-4.158;2023-01-27T04:34:31;102762.78;;;9.84;48.99
17649;BME280;8943;51.110;-4.158;2023-01-27T04:37:02;102751.94;;;9.88;48.84
17649;BME280;8943;51.110;-4.158;2023-01-27T04:39:30;102752.53;;;9.96;48.74
17649;BME280;8943;51.110;-4.158;2023-01-27T04:41:59;102747.84;;;10.03;48.75
17649;BME280;8943;51.110;-4.158;2023-01-27T04:44:27;102753.84;;;10.08;48.55
17649;BME280;8943;51.110;-4.158;2023-01-27T04:46:55;102749.28;;;10.12;48.83
17649;BME280;8943;51.110;-4.158;2023-01-27T04:49:24;102749.03;;;10.18;48.64
17649;BME280;8943;51.110;-4.158;2023-01-27T04:51:53;102756.84;;;10.22;48.36
17649;BME280;8943;51.110;-4.158;2023-01-27T04:54:22;102758.50;;;10.26;48.53
17649;BME280;8943;51.110;-4.158;2023-01-27T04:56:55;102761.91;;;10.30;48.35
17649;BME280;8943;51.110;-4.158;2023-01-27T04:59:24;102753.78;;;10.33;48.44
17649;BME280;8943;51.110;-4.158;2023-01-27T05:01:52;102763.47;;;10.36;48.15
17649;BME280;8943;51.110;-4.158;2023-01-27T05:04:20;102760.72;;;10.37;48.23
17649;BME280;8943;51.110;-4.158;2023-01-27T05:06:49;102775.75;;;10.40;48.26
17649;BME280;8943;51.110;-4.158;2023-01-27T05:09:17;102764.19;;;10.39;48.03
17649;BME280;8943;51.110;-4.158;2023-01-27T05:11:46;102764.91;;;10.44;47.99
17649;BME280;8943;51.110;-4.158;2023-01-27T05:14:15;102767.41;;;10.47;47.74
17649;BME280;8943;51.110;-4.158;2023-01-27T05:16:43;102765.56;;;10.49;47.73
17649;BME280;8943;51.110;-4.158;2023-01-27T05:19:11;102764.81;;;10.46;47.64
17649;BME280;8943;51.110;-4.158;2023-01-27T05:21:39;102761.53;;;10.39;47.58
17649;BME280;8943;51.110;-4.158;2023-01-27T05:24:09;102772.31;;;10.36;47.84
17649;BME280;8943;51.110;-4.158;2023-01-27T05:26:37;102759.06;;;10.35;47.86
17649;BME280;8943;51.110;-4.158;2023-01-27T05:29:08;102757.28;;;10.35;47.80
17649;BME280;8943;51.110;-4.158;2023-01-27T05:31:36;102756.44;;;10.33;47.65
17649;BME280;8943;51.110;-4.158;2023-01-27T05:34:05;102753.78;;;10.33;47.93
17649;BME280;8943;51.110;-4.158;2023-01-27T05:36:33;102757.28;;;10.35;47.86
17649;BME280;8943;51.110;-4.158;2023-01-27T05:39:01;102751.94;;;10.35;47.72
17649;BME280;8943;51.110;-4.158;2023-01-27T05:41:31;102753.59;;;10.38;47.80
17649;BME280;8943;51.110;-4.158;2023-01-27T05:44:00;102759.69;;;10.41;47.47
17649;BME280;8943;51.110;-4.158;2023-01-27T05:46:31;102754.28;;;10.43;47.82
17649;BME280;8943;51.110;-4.158;2023-01-27T05:49:01;102760.38;;;10.46;47.50
17649;BME280;8943;51.110;-4.158;2023-01-27T05:51:32;102744.25;;;10.49;47.81
17649;BME280;8943;51.110;-4.158;2023-01-27T05:54:01;102741.25;;;10.57;47.62
17649;BME280;8943;51.110;-4.158;2023-01-27T05:56:33;102742.94;;;10.60;47.71
17649;BME280;8943;51.110;-4.158;2023-01-27T05:59:01;102742.00;;;10.61;47.48
17649;BME280;8943;51.110;-4.158;2023-01-27T06:01:33;102755.16;;;10.65;47.53
17649;BME280;8943;51.110;-4.158;2023-01-27T06:04:04;102748.81;;;10.68;47.23
17649;BME280;8943;51.110;-4.158;2023-01-27T06:06:33;102742.41;;;10.72;47.34
17649;BME280;8943;51.110;-4.158;2023-01-27T06:09:02;102746.81;;;10.73;47.11
17649;BME280;8943;51.110;-4.158;2023-01-27T06:11:31;102756.38;;;10.78;47.19
17649;BME280;8943;51.110;-4.158;2023-01-27T06:14:01;102754.50;;;10.80;47.44
17649;BME280;8943;51.110;-4.158;2023-01-27T06:16:33;102750.81;;;10.83;46.93
17649;BME280;8943;51.110;-4.158;2023-01-27T06:19:01;102747.19;;;10.86;46.86
17649;BME280;8943;51.110;-4.158;2023-01-27T06:21:30;102754.16;;;10.88;46.99
17649;BME280;8943;51.110;-4.158;2023-01-27T06:23:59;102757.72;;;10.89;46.86
17649;BME280;8943;51.110;-4.158;2023-01-27T06:26:27;102749.78;;;10.87;46.66
17649;BME280;8943;51.110;-4.158;2023-01-27T06:28:56;102753.25;;;10.89;46.87
17649;BME280;8943;51.110;-4.158;2023-01-27T06:31:27;102744.31;;;10.90;46.82
17649;BME280;8943;51.110;-4.158;2023-01-27T06:33:56;102749.59;;;10.92;46.81
17649;BME280;8943;51.110;-4.158;2023-01-27T06:36:24;102744.13;;;10.95;46.65
17649;BME280;8943;51.110;-4.158;2023-01-27T06:38:53;102742.31;;;10.95;46.64
17649;BME280;8943;51.110;-4.158;2023-01-27T06:41:21;102743.94;;;10.99;46.61
17649;BME280;8943;51.110;-4.158;2023-01-27T06:43:51;102741.25;;;10.99;46.39
17649;BME280;8943;51.110;-4.158;2023-01-27T06:46:20;102754.44;;;11.02;46.61
17649;BME280;8943;51.110;-4.158;2023-01-27T06:48:48;102751.84;;;11.01;46.45
17649;BME280;8943;51.110;-4.158;2023-01-27T06:51:18;102750.81;;;11.05;46.46
17649;BME280;8943;51.110;-4.158;2023-01-27T06:53:46;102750.88;;;11.03;46.31
17649;BME280;8943;51.110;-4.158;2023-01-27T06:56:14;102750.00;;;11.03;46.69
17649;BME280;8943;51.110;-4.158;2023-01-27T06:58:43;102747.38;;;11.01;46.45
17649;BME280;8943;51.110;-4.158;2023-01-27T07:01:11;102757.19;;;11.01;46.66
17649;BME280;8943;51.110;-4.158;2023-01-27T07:03:40;102755.59;;;10.97;46.40
17649;BME280;8943;51.110;-4.158;2023-01-27T07:06:10;102751.28;;;10.94;46.51
17649;BME280;8943;51.110;-4.158;2023-01-27T07:08:42;102748.78;;;10.90;46.62
17649;BME280;8943;51.110;-4.158;2023-01-27T07:11:12;102755.97;;;10.88;46.56
17649;BME280;8943;51.110;-4.158;2023-01-27T07:13:40;102751.78;;;10.82;46.79
17649;BME280;8943;51.110;-4.158;2023-01-27T07:16:09;102745.72;;;10.78;46.86
17649;BME280;8943;51.110;-4.158;2023-01-27T07:18:37;102749.28;;;10.77;46.65
17649;BME280;8943;51.110;-4.158;2023-01-27T07:21:05;102751.25;;;10.74;46.70
17649;BME280;8943;51.110;-4.158;2023-01-27T07:23:34;102760.97;;;10.75;47.07
17649;BME280;8943;51.110;-4.158;2023-01-27T07:26:03;102751.25;;;10.74;46.98
17649;BME280;8943;51.110;-4.158;2023-01-27T07:28:49;102746.81;;;10.73;47.12
17649;BME280;8943;51.110;-4.158;2023-01-27T07:31:18;102748.56;;;10.74;47.39
17649;BME280;8943;51.110;-4.158;2023-01-27T07:33:47;102748.44;;;10.77;47.28
17649;BME280;8943;51.110;-4.158;2023-01-27T07:36:15;102758.13;;;10.79;47.31
17649;BME280;8943;51.110;-4.158;2023-01-27T07:38:43;102758.84;;;10.83;47.34
17649;BME280;8943;51.110;-4.158;2023-01-27T07:41:13;102754.38;;;10.83;47.57
17649;BME280;8943;51.110;-4.158;2023-01-27T07:43:41;102761.38;;;10.86;47.71
17649;BME280;8943;51.110;-4.158;2023-01-27T07:46:09;102763.94;;;10.89;47.34
17649;BME280;8943;51.110;-4.158;2023-01-27T07:48:38;102761.13;;;10.92;47.59
17649;BME280;8943;51.110;-4.158;2023-01-27T07:51:10;102761.19;;;10.91;47.55
17649;BME280;8943;51.110;-4.158;2023-01-27T07:53:38;102765.53;;;10.93;47.82
17649;BME280;8943;51.110;-4.158;2023-01-27T07:56:07;102769.25;;;10.89;47.74
17649;BME280;8943;51.110;-4.158;2023-01-27T07:58:41;102773.72;;;10.89;47.75
17649;BME280;8943;51.110;-4.158;2023-01-27T08:01:11;102775.50;;;10.88;47.83
17649;BME280;8943;51.110;-4.158;2023-01-27T08:03:39;102772.78;;;10.90;47.82
17649;BME280;8943;51.110;-4.158;2023-01-27T08:06:09;102772.72;;;10.91;48.14
17649;BME280;8943;51.110;-4.158;2023-01-27T08:08:38;102774.44;;;10.92;48.18
17649;BME280;8943;51.110;-4.158;2023-01-27T08:11:09;102766.41;;;10.94;48.03
17649;BME280;8943;51.110;-4.158;2023-01-27T08:13:40;102775.13;;;10.97;48.14
17649;BME280;8943;51.110;-4.158;2023-01-27T08:16:11;102783.00;;;11.00;47.99
17649;BME280;8943;51.110;-4.158;2023-01-27T08:18:40;102785.75;;;10.99;48.05
17649;BME280;8943;51.110;-4.158;2023-01-27T08:21:09;102792.88;;;10.98;48.11
17649;BME280;8943;51.110;-4.158;2023-01-27T08:23:38;102799.09;;;10.99;48.08
17649;BME280;8943;51.110;-4.158;2023-01-27T08:26:06;102801.56;;;11.03;48.15
17649;BME280;8943;51.110;-4.158;2023-01-27T08:28:36;102804.22;;;11.03;47.95
17649;BME280;8943;51.110;-4.158;2023-01-27T08:31:09;102801.50;;;11.05;48.07
17649;BME280;8943;51.110;-4.158;2023-01-27T08:33:39;102809.41;;;11.06;48.09
17649;BME280;8943;51.110;-4.158;2023-01-27T08:36:09;102817.41;;;11.06;47.97
17649;BME280;8943;51.110;-4.158;2023-01-27T08:38:38;102815.50;;;11.10;48.08
17649;BME280;8943;51.110;-4.158;2023-01-27T08:41:09;102814.53;;;11.13;48.03
17649;BME280;8943;51.110;-4.158;2023-01-27T08:43:38;102807.19;;;11.18;47.71
17649;BME280;8943;51.110;-4.158;2023-01-27T08:46:08;102809.69;;;11.21;47.90
17649;BME280;8943;51.110;-4.158;2023-01-27T08:48:37;102819.31;;;11.25;47.52
17649;BME280;8943;51.110;-4.158;2023-01-27T08:51:06;102819.19;;;11.28;47.60
17649;BME280;8943;51.110;-4.158;2023-01-27T08:53:35;102816.44;;;11.29;47.54
17649;BME280;8943;51.110;-4.158;2023-01-27T08:56:05;102811.00;;;11.32;47.78
17649;BME280;8943;51.110;-4.158;2023-01-27T08:58:34;102813.47;;;11.37;47.36
17649;BME280;8943;51.110;-4.158;2023-01-27T09:01:04;102820.38;;;11.41;47.84
17649;BME280;8943;51.110;-4.158;2023-01-27T09:03:35;102822.94;;;11.44;47.35
17649;BME280;8943;51.110;-4.158;2023-01-27T09:06:04;102824.38;;;11.51;47.32
17649;BME280;8943;51.110;-4.158;2023-01-27T09:08:34;102827.06;;;11.51;47.63
17649;BME280;8943;51.110;-4.158;2023-01-27T09:11:08;102826.94;;;11.54;47.58
17649;BME280;8943;51.110;-4.158;2023-01-27T09:13:36;102841.81;;;11.60;47.56
17649;BME280;8943;51.110;-4.158;2023-01-27T09:16:04;102830.13;;;11.63;47.47
17649;BME280;8943;51.110;-4.158;2023-01-27T09:18:35;102837.22;;;11.64;47.53
17649;BME280;8943;51.110;-4.158;2023-01-27T09:21:04;102842.28;;;11.70;47.30
17649;BME280;8943;51.110;-4.158;2023-01-27T09:23:33;102835.88;;;11.74;47.22
17649;BME280;8943;51.110;-4.158;2023-01-27T09:26:01;102841.09;;;11.77;47.51
17649;BME280;8943;51.110;-4.158;2023-01-27T09:28:29;102840.06;;;11.79;47.12
17649;BME280;8943;51.110;-4.158;2023-01-27T09:30:58;102839.88;;;11.84;47.28
17649;BME280;8943;51.110;-4.158;2023-01-27T09:33:26;102847.78;;;11.87;47.31
17649;BME280;8943;51.110;-4.158;2023-01-27T09:36:00;102846.72;;;11.91;47.55
17649;BME280;8943;51.110;-4.158;2023-01-27T09:38:34;102849.16;;;11.96;47.16
17649;BME280;8943;51.110;-4.158;2023-01-27T09:41:21;102847.28;;;11.98;47.25
17649;BME280;8943;51.110;-4.158;2023-01-27T09:44:08;102849.75;;;12.02;47.30
17649;BME280;8943;51.110;-4.158;2023-01-27T09:46:56;102852.13;;;12.08;47.44
17649;BME280;8943;51.110;-4.158;2023-01-27T09:49:44;102854.53;;;12.15;47.24
17649;BME280;8943;51.110;-4.158;2023-01-27T09:52:32;102864.00;;;12.22;46.99
17649;BME280;8943;51.110;-4.158;2023-01-27T09:55:19;102868.31;;;12.24;46.93
17649;BME280;8943;51.110;-4.158;2023-01-27T09:57:54;102865.22;;;12.15;46.82
17649;BME280;8943;51.110;-4.158;2023-01-27T10:00:32;102870.84;;;12.08;46.65
17649;BME280;8943;51.110;-4.158;2023-01-27T10:03:19;102861.38;;;12.01;46.99
17649;BME280;8943;51.110;-4.158;2023-01-27T10:06:13;102863.91;;;12.04;47.13
17649;BME280;8943;51.110;-4.158;2023-01-27T10:09:02;102868.81;;;12.14;47.65
17649;BME280;8943;51.110;-4.158;2023-01-27T10:11:40;102862.13;;;12.24;47.56
17649;BME280;8943;51.110;-4.158;2023-01-27T10:14:19;102858.88;;;12.36;47.72
17649;BME280;8943;51.110;-4.158;2023-01-27T10:17:11;102853.91;;;12.47;47.92
17649;BME280;8943;51.110;-4.158;2023-01-27T10:19:59;102849.06;;;12.55;47.40
17649;BME280;8943;51.110;-4.158;2023-01-27T10:22:36;102850.78;;;12.56;47.16
17649;BME280;8943;51.110;-4.158;2023-01-27T10:25:20;102854.53;;;12.52;46.95
17649;BME280;8943;51.110;-4.158;2023-01-27T10:27:55;102846.69;;;12.49;46.94
17649;BME280;8943;51.110;-4.158;2023-01-27T10:30:29;102844.13;;;12.46;46.83
17649;BME280;8943;51.110;-4.158;2023-01-27T10:33:10;102846.09;;;12.43;47.26
17649;BME280;8943;51.110;-4.158;2023-01-27T10:35:49;102847.34;;;12.35;46.97
17649;BME280;8943;51.110;-4.158;2023-01-27T10:38:28;102851.38;;;12.25;47.09
17649;BME280;8943;51.110;-4.158;2023-01-27T10:41:13;102849.38;;;12.10;46.58
17649;BME280;8943;51.110;-4.158;2023-01-27T10:43:50;102851.59;;;12.00;46.67
17649;BME280;8943;51.110;-4.158;2023-01-27T10:46:25;102852.06;;;11.91;47.11
17649;BME280;8943;51.110;-4.158;2023-01-27T10:49:02;102854.19;;;11.83;46.92
17649;BME280;8943;51.110;-4.158;2023-01-27T10:51:34;102865.81;;;11.82;46.91
17649;BME280;8943;51.110;-4.158;2023-01-27T10:54:08;102861.25;;;11.84;47.09
17649;BME280;8943;51.110;-4.158;2023-01-27T10:56:43;102857.44;;;11.90;47.13
17649;BME280;8943;51.110;-4.158;2023-01-27T10:59:19;102860.56;;;11.99;47.19
17649;BME280;8943;51.110;-4.158;2023-01-27T11:01:52;102858.09;;;12.15;47.44
17649;BME280;8943;51.110;-4.158;2023-01-27T11:04:30;102852.81;;;12.32;47.81
17649;BME280;8943;51.110;-4.158;2023-01-27T11:07:00;102854.84;;;12.46;47.48
17649;BME280;8943;51.110;-4.158;2023-01-27T11:09:30;102863.22;;;12.57;47.21
17649;BME280;8943;51.110;-4.158;2023-01-27T11:12:04;102864.94;;;12.58;46.87
17649;BME280;8943;51.110;-4.158;2023-01-27T11:14:41;102858.03;;;12.54;47.11
17649;BME280;8943;51.110;-4.158;2023-01-27T11:17:14;102864.94;;;12.58;46.93
17649;BME280;8943;51.110;-4.158;2023-01-27T11:19:54;102862.13;;;12.61;46.80
17649;BME280;8943;51.110;-4.158;2023-01-27T11:22:28;102862.03;;;12.63;47.00
17649;BME280;8943;51.110;-4.158;2023-01-27T11:25:05;102853.03;;;12.66;47.25
17649;BME280;8943;51.110;-4.158;2023-01-27T11:27:50;102854.22;;;12.77;47.34
17649;BME280;8943;51.110;-4.158;2023-01-27T11:30:25;102850.38;;;12.83;47.21
17649;BME280;8943;51.110;-4.158;2023-01-27T11:32:59;102850.88;;;12.91;47.30
17649;BME280;8943;51.110;-4.158;2023-01-27T11:35:29;102843.19;;;13.02;46.88
17649;BME280;8943;51.110;-4.158;2023-01-27T11:37:57;102843.03;;;13.05;47.18
17649;BME280;8943;51.110;-4.158;2023-01-27T11:40:41;102835.78;;;13.07;47.10
17649;BME280;8943;51.110;-4.158;2023-01-27T11:43:15;102827.75;;;13.07;47.02
17649;BME280;8943;51.110;-4.158;2023-01-27T11:45:45;102828.88;;;13.03;46.94
17649;BME280;8943;51.110;-4.158;2023-01-27T11:48:15;102817.91;;;12.91;46.70
17649;BME280;8943;51.110;-4.158;2023-01-27T11:50:48;102811.50;;;12.76;46.88
17649;BME280;8943;51.110;-4.158;2023-01-27T11:53:20;102810.53;;;12.59;46.92
17649;BME280;8943;51.110;-4.158;2023-01-27T11:55:54;102808.56;;;12.44;46.88
17649;BME280;8943;51.110;-4.158;2023-01-27T11:58:30;102796.09;;;12.26;46.82
17649;BME280;8943;51.110;-4.158;2023-01-27T12:01:02;102787.88;;;12.11;47.08
17649;BME280;8943;51.110;-4.158;2023-01-27T12:03:53;102782.44;;;11.94;47.22
17649;BME280;8943;51.110;-4.158;2023-01-27T12:06:31;102790.72;;;11.88;47.47
17649;BME280;8943;51.110;-4.158;2023-01-27T12:09:01;102787.28;;;11.86;47.26
17649;BME280;8943;51.110;-4.158;2023-01-27T12:11:30;102785.78;;;11.79;47.33
17649;BME280;8943;51.110;-4.158;2023-01-27T12:14:03;102787.91;;;11.71;47.46
17649;BME280;8943;51.110;-4.158;2023-01-27T12:16:42;102782.13;;;11.61;47.71
17649;BME280;8943;51.110;-4.158;2023-01-27T12:19:20;102790.88;;;11.65;47.35
17649;BME280;8943;51.110;-4.158;2023-01-27T12:21:51;102792.34;;;11.72;47.79
17649;BME280;8943;51.110;-4.158;2023-01-27T12:24:27;102785.59;;;11.83;47.86
17649;BME280;8943;51.110;-4.158;2023-01-27T12:26:58;102776.97;;;11.97;47.89
17649;BME280;8943;51.110;-4.158;2023-01-27T12:29:37;102771.19;;;12.06;48.06
17649;BME280;8943;51.110;-4.158;2023-01-27T12:32:14;102776.09;;;12.16;47.80
17649;BME280;8943;51.110;-4.158;2023-01-27T12:34:47;102759.97;;;12.17;47.48
17649;BME280;8943;51.110;-4.158;2023-01-27T12:37:20;102765.13;;;12.22;47.39
17649;BME280;8943;51.110;-4.158;2023-01-27T12:39:50;102774.56;;;12.29;47.44
17649;BME280;8943;51.110;-4.158;2023-01-27T12:42:37;102758.28;;;12.33;47.34
17649;BME280;8943;51.110;-4.158;2023-01-27T12:45:19;102755.56;;;12.35;47.39
17649;BME280;8943;51.110;-4.158;2023-01-27T12:47:56;102760.09;;;12.33;47.35
17649;BME280;8943;51.110;-4.158;2023-01-27T12:50:27;102747.56;;;12.35;47.18
17649;BME280;8943;51.110;-4.158;2023-01-27T12:53:10;102749.69;;;12.46;47.20
17649;BME280;8943;51.110;-4.158;2023-01-27T12:55:41;102758.28;;;12.52;47.28
17649;BME280;8943;51.110;-4.158;2023-01-27T13:00:59;102745.41;;;12.60;47.28
17649;BME280;8943;51.110;-4.158;2023-01-27T13:03:39;102745.09;;;12.67;47.24
17649;BME280;8943;51.110;-4.158;2023-01-27T13:06:13;102745.63;;;12.73;47.05
17649;BME280;8943;51.110;-4.158;2023-01-27T13:08:49;102743.75;;;12.75;46.89
17649;BME280;8943;51.110;-4.158;2023-01-27T13:11:30;102746.75;;;12.69;47.03
17649;BME280;8943;51.110;-4.158;2023-01-27T13:14:15;102739.72;;;12.67;46.76
17649;BME280;8943;51.110;-4.158;2023-01-27T13:16:54;102734.38;;;12.67;46.85
17649;BME280;8943;51.110;-4.158;2023-01-27T13:19:33;102735.97;;;12.71;46.96
17649;BME280;8943;51.110;-4.158;2023-01-27T13:22:03;102734.00;;;12.74;46.76
17649;BME280;8943;51.110;-4.158;2023-01-27T13:24:34;102735.50;;;12.80;46.74